DLH4T EDDM-EDDB
Flight info
| Callsign | DLH4T |
|---|---|
| Flight time | 0h 45m |
| Altitude | 29000 |
| Route | AKINI1S AKINI Y104 MAMOR L132 RUDNO T203 TIVDA DCT ETVIS DCT NAVEK DCT GAVLI/N0407F300 T203 ATGUP ATGUP1R |
| Aircraft | A320/M-SDE3FGHIRWY/LB1 |
Departure
| Time | 2026-05-06 20:30 |
|---|---|
| Airport | Munich Airport (EDDM) |
Arrival
| Time | 2026-05-06 21:15 |
|---|---|
| Airport | Berlin Brandenburg Airport (EDDB) |
| Time | Latitude | Longitude | Altitude | Speed | Heading |
|---|---|---|---|---|---|
| 2026-05-06 19:49 | 48.35666 | 11.79953 | 1485 ft | 0 kts | 264° |
| 2026-05-06 20:18 | 48.35666 | 11.79959 | 1471 ft | 2 kts | 264° |
| 2026-05-06 20:18 | 48.35669 | 11.79987 | 1479 ft | 3 kts | 264° |
| 2026-05-06 20:19 | 48.35671 | 11.80017 | 1474 ft | 3 kts | 263° |
| 2026-05-06 20:19 | 48.35673 | 11.80046 | 1475 ft | 3 kts | 270° |
| 2026-05-06 20:19 | 48.35671 | 11.80074 | 1474 ft | 3 kts | 300° |
| 2026-05-06 20:19 | 48.35659 | 11.80094 | 1473 ft | 3 kts | 339° |
| 2026-05-06 20:20 | 48.35646 | 11.80100 | 1475 ft | 1 kts | 353° |
| 2026-05-06 20:20 | 48.35631 | 11.80102 | 1475 ft | 2 kts | 353° |
| 2026-05-06 20:20 | 48.35628 | 11.80103 | 1476 ft | 0 kts | 353° |
| 2026-05-06 20:22 | 48.35629 | 11.80103 | 1475 ft | 1 kts | 353° |
| 2026-05-06 20:22 | 48.35667 | 11.80096 | 1475 ft | 7 kts | 348° |
| 2026-05-06 20:22 | 48.35714 | 11.80077 | 1479 ft | 8 kts | 350° |
| 2026-05-06 20:23 | 48.35772 | 11.80068 | 1479 ft | 8 kts | 354° |
| 2026-05-06 20:23 | 48.35821 | 11.80035 | 1485 ft | 10 kts | 308° |
| 2026-05-06 20:23 | 48.35824 | 11.79932 | 1485 ft | 11 kts | 264° |
| 2026-05-06 20:23 | 48.35816 | 11.79818 | 1478 ft | 11 kts | 263° |
| 2026-05-06 20:24 | 48.35806 | 11.79699 | 1485 ft | 12 kts | 263° |
| 2026-05-06 20:24 | 48.35796 | 11.79575 | 1480 ft | 12 kts | 263° |
| 2026-05-06 20:24 | 48.35788 | 11.79454 | 1478 ft | 11 kts | 266° |
| 2026-05-06 20:24 | 48.35841 | 11.79386 | 1478 ft | 11 kts | 353° |
| 2026-05-06 20:25 | 48.35910 | 11.79364 | 1483 ft | 10 kts | 333° |
| 2026-05-06 20:25 | 48.35980 | 11.79335 | 1476 ft | 10 kts | 352° |
| 2026-05-06 20:25 | 48.36042 | 11.79324 | 1478 ft | 10 kts | 353° |
| 2026-05-06 20:25 | 48.36125 | 11.79310 | 1485 ft | 12 kts | 353° |
| 2026-05-06 20:26 | 48.36209 | 11.79291 | 1481 ft | 11 kts | 346° |
| 2026-05-06 20:26 | 48.36263 | 11.79222 | 1483 ft | 11 kts | 300° |
| 2026-05-06 20:26 | 48.36296 | 11.79116 | 1481 ft | 12 kts | 294° |
| 2026-05-06 20:26 | 48.36333 | 11.78984 | 1485 ft | 17 kts | 293° |
| 2026-05-06 20:27 | 48.36383 | 11.78803 | 1474 ft | 19 kts | 292° |
| 2026-05-06 20:27 | 48.36415 | 11.78612 | 1485 ft | 20 kts | 269° |
| 2026-05-06 20:27 | 48.36385 | 11.78193 | 1485 ft | 77 kts | 263° |
| 2026-05-06 20:27 | 48.34421 | 11.79699 | 1486 ft | 1 kts | 263° |
| 2026-05-06 20:28 | 48.34416 | 11.79620 | 1486 ft | 0 kts | 264° |
| 2026-05-06 20:28 | 48.36675 | 11.81946 | 1481 ft | 0 kts | 263° |
| 2026-05-06 20:29 | 48.36675 | 11.81944 | 1481 ft | 1 kts | 263° |
| 2026-05-06 20:29 | 48.36660 | 11.81754 | 1478 ft | 53 kts | 263° |
| 2026-05-06 20:29 | 48.36618 | 11.81210 | 1485 ft | 104 kts | 263° |
| 2026-05-06 20:30 | 48.36408 | 11.78940 | 2168 ft | 142 kts | 262° |
| 2026-05-06 20:30 | 48.36152 | 11.75655 | 2921 ft | 176 kts | 265° |
| 2026-05-06 20:30 | 48.36022 | 11.73726 | 3252 ft | 195 kts | 265° |
| 2026-05-06 20:31 | 48.35877 | 11.71671 | 3978 ft | 200 kts | 265° |
| 2026-05-06 20:31 | 48.35793 | 11.70261 | 4471 ft | 203 kts | 271° |
| 2026-05-06 20:31 | 48.36307 | 11.67551 | 5407 ft | 211 kts | 300° |
| 2026-05-06 20:31 | 48.36958 | 11.66418 | 5897 ft | 218 kts | 315° |
| 2026-05-06 20:32 | 48.38933 | 11.65172 | 6511 ft | 257 kts | 352° |
| 2026-05-06 20:32 | 48.40150 | 11.65462 | 6758 ft | 280 kts | 17° |
| 2026-05-06 20:32 | 48.41855 | 11.67084 | 7370 ft | 296 kts | 34° |
| 2026-05-06 20:32 | 48.43444 | 11.69118 | 8101 ft | 303 kts | 39° |
| 2026-05-06 20:33 | 48.45128 | 11.71035 | 8827 ft | 306 kts | 30° |
| 2026-05-06 20:33 | 48.46944 | 11.72754 | 9556 ft | 311 kts | 30° |
| 2026-05-06 20:33 | 48.48810 | 11.74460 | 10214 ft | 319 kts | 28° |
| 2026-05-06 20:33 | 48.50755 | 11.76217 | 10405 ft | 342 kts | 28° |
| 2026-05-06 20:34 | 48.52880 | 11.78138 | 10766 ft | 358 kts | 29° |
| 2026-05-06 20:34 | 48.55031 | 11.80097 | 11398 ft | 364 kts | 30° |
| 2026-05-06 20:34 | 48.57234 | 11.82127 | 12098 ft | 368 kts | 30° |
| 2026-05-06 20:34 | 48.59422 | 11.84157 | 12804 ft | 371 kts | 30° |
| 2026-05-06 20:35 | 48.61607 | 11.86192 | 13480 ft | 375 kts | 31° |
| 2026-05-06 20:35 | 48.63833 | 11.88266 | 14115 ft | 378 kts | 31° |
| 2026-05-06 20:35 | 48.66091 | 11.90364 | 14717 ft | 382 kts | 31° |
| 2026-05-06 20:35 | 48.68363 | 11.92471 | 15325 ft | 385 kts | 31° |
| 2026-05-06 20:36 | 48.70640 | 11.94593 | 15994 ft | 386 kts | 31° |
| 2026-05-06 20:36 | 48.72931 | 11.96735 | 16609 ft | 388 kts | 32° |
| 2026-05-06 20:36 | 48.75233 | 11.98887 | 17231 ft | 390 kts | 32° |
| 2026-05-06 20:36 | 48.77548 | 12.01056 | 17834 ft | 393 kts | 32° |
| 2026-05-06 20:37 | 48.79879 | 12.03240 | 18391 ft | 396 kts | 32° |
| 2026-05-06 20:37 | 48.82236 | 12.05448 | 18889 ft | 398 kts | 32° |
| 2026-05-06 20:37 | 48.84601 | 12.07658 | 19418 ft | 401 kts | 32° |
| 2026-05-06 20:37 | 48.86983 | 12.09885 | 19949 ft | 403 kts | 32° |
| 2026-05-06 20:38 | 48.89372 | 12.12125 | 20471 ft | 405 kts | 32° |
| 2026-05-06 20:38 | 48.91776 | 12.14388 | 21044 ft | 406 kts | 32° |
| 2026-05-06 20:38 | 48.94186 | 12.16662 | 21567 ft | 409 kts | 33° |
| 2026-05-06 20:38 | 48.96581 | 12.18923 | 22058 ft | 412 kts | 33° |
| 2026-05-06 20:39 | 48.99021 | 12.21229 | 22546 ft | 414 kts | 33° |
| 2026-05-06 20:39 | 49.01478 | 12.23555 | 23019 ft | 417 kts | 33° |
| 2026-05-06 20:39 | 49.03949 | 12.25892 | 23482 ft | 420 kts | 33° |
| 2026-05-06 20:39 | 49.06440 | 12.28245 | 23851 ft | 423 kts | 33° |
| 2026-05-06 20:40 | 49.08952 | 12.30617 | 24238 ft | 426 kts | 33° |
| 2026-05-06 20:40 | 49.11481 | 12.33016 | 24596 ft | 429 kts | 32° |
| 2026-05-06 20:40 | 49.14023 | 12.35428 | 24942 ft | 432 kts | 33° |
| 2026-05-06 20:40 | 49.16580 | 12.37858 | 25291 ft | 434 kts | 33° |
| 2026-05-06 20:41 | 49.19145 | 12.40304 | 25633 ft | 437 kts | 33° |
| 2026-05-06 20:41 | 49.21734 | 12.42776 | 25963 ft | 440 kts | 33° |
| 2026-05-06 20:41 | 49.24300 | 12.45228 | 26284 ft | 442 kts | 33° |
| 2026-05-06 20:41 | 49.26914 | 12.47725 | 26606 ft | 445 kts | 32° |
| 2026-05-06 20:42 | 49.29741 | 12.49692 | 26909 ft | 449 kts | 18° |
| 2026-05-06 20:42 | 49.32743 | 12.51117 | 27145 ft | 454 kts | 17° |
| 2026-05-06 20:42 | 49.35774 | 12.52531 | 27424 ft | 457 kts | 17° |
| 2026-05-06 20:42 | 49.38841 | 12.53947 | 27719 ft | 460 kts | 17° |
| 2026-05-06 20:43 | 49.41913 | 12.55359 | 27987 ft | 462 kts | 17° |
| 2026-05-06 20:43 | 49.45001 | 12.56786 | 28259 ft | 464 kts | 17° |
| 2026-05-06 20:43 | 49.48098 | 12.58221 | 28534 ft | 466 kts | 17° |
| 2026-05-06 20:43 | 49.51171 | 12.59647 | 28781 ft | 469 kts | 17° |
| 2026-05-06 20:44 | 49.54275 | 12.61091 | 28827 ft | 460 kts | 17° |
| 2026-05-06 20:44 | 49.60312 | 12.63916 | 28819 ft | 451 kts | 17° |
| 2026-05-06 20:45 | 49.66294 | 12.66736 | 28814 ft | 449 kts | 17° |
| 2026-05-06 20:45 | 49.72271 | 12.69555 | 28823 ft | 449 kts | 17° |
| 2026-05-06 20:46 | 49.78278 | 12.72388 | 28815 ft | 452 kts | 16° |
| 2026-05-06 20:46 | 49.84256 | 12.75209 | 28809 ft | 453 kts | 16° |
| 2026-05-06 20:47 | 49.90285 | 12.78064 | 28807 ft | 452 kts | 16° |
| 2026-05-06 20:47 | 49.96302 | 12.80921 | 28813 ft | 452 kts | 16° |
| 2026-05-06 20:48 | 50.02297 | 12.83770 | 28813 ft | 451 kts | 16° |
| 2026-05-06 20:48 | 50.08302 | 12.86657 | 28809 ft | 451 kts | 19° |
| 2026-05-06 20:49 | 50.14112 | 12.90162 | 28798 ft | 451 kts | 21° |
| 2026-05-06 20:49 | 50.19902 | 12.93925 | 28795 ft | 451 kts | 22° |
| 2026-05-06 20:50 | 50.25691 | 12.97726 | 28800 ft | 453 kts | 21° |
| 2026-05-06 20:50 | 50.31534 | 13.01506 | 28799 ft | 454 kts | 21° |
| 2026-05-06 20:51 | 50.37378 | 13.05259 | 28802 ft | 455 kts | 21° |
| 2026-05-06 20:51 | 50.43228 | 13.09034 | 28800 ft | 454 kts | 21° |
| 2026-05-06 20:52 | 50.49073 | 13.12829 | 28805 ft | 454 kts | 21° |
| 2026-05-06 20:52 | 50.54879 | 13.16613 | 28803 ft | 454 kts | 21° |
| 2026-05-06 20:53 | 50.60715 | 13.20413 | 28815 ft | 454 kts | 21° |
| 2026-05-06 20:53 | 50.66558 | 13.24229 | 28807 ft | 454 kts | 21° |
| 2026-05-06 20:54 | 50.72393 | 13.28065 | 28803 ft | 454 kts | 21° |
| 2026-05-06 20:54 | 50.78193 | 13.31879 | 28804 ft | 455 kts | 21° |
| 2026-05-06 20:55 | 50.84031 | 13.35725 | 28809 ft | 455 kts | 20° |
| 2026-05-06 20:55 | 50.89885 | 13.39557 | 28768 ft | 454 kts | 17° |
| 2026-05-06 20:55 | 50.92903 | 13.40871 | 28283 ft | 447 kts | 11° |
| 2026-05-06 20:56 | 50.95924 | 13.42009 | 27797 ft | 443 kts | 10° |
| 2026-05-06 20:56 | 50.98907 | 13.43117 | 27319 ft | 439 kts | 10° |
| 2026-05-06 20:56 | 51.01872 | 13.44212 | 26849 ft | 435 kts | 11° |
| 2026-05-06 20:56 | 51.04776 | 13.45286 | 26391 ft | 432 kts | 11° |
| 2026-05-06 20:57 | 51.07725 | 13.46387 | 25927 ft | 428 kts | 11° |
| 2026-05-06 20:57 | 51.10617 | 13.47477 | 25477 ft | 425 kts | 11° |
| 2026-05-06 20:57 | 51.13481 | 13.48559 | 25034 ft | 422 kts | 11° |
| 2026-05-06 20:57 | 51.16324 | 13.49635 | 24598 ft | 419 kts | 11° |
| 2026-05-06 20:58 | 51.19152 | 13.50709 | 24169 ft | 415 kts | 11° |
| 2026-05-06 20:58 | 51.21915 | 13.51756 | 23755 ft | 412 kts | 12° |
| 2026-05-06 20:58 | 51.24731 | 13.52823 | 23321 ft | 409 kts | 12° |
| 2026-05-06 20:58 | 51.27492 | 13.53868 | 22823 ft | 406 kts | 12° |
| 2026-05-06 20:59 | 51.30232 | 13.54903 | 22344 ft | 404 kts | 11° |
| 2026-05-06 20:59 | 51.32961 | 13.55931 | 21868 ft | 401 kts | 11° |
| 2026-05-06 20:59 | 51.35666 | 13.56955 | 21395 ft | 399 kts | 12° |
| 2026-05-06 20:59 | 51.38358 | 13.57981 | 20931 ft | 397 kts | 12° |
| 2026-05-06 21:00 | 51.41039 | 13.59007 | 20477 ft | 394 kts | 12° |
| 2026-05-06 21:00 | 51.43706 | 13.60027 | 20024 ft | 392 kts | 12° |
| 2026-05-06 21:00 | 51.46347 | 13.61037 | 19574 ft | 390 kts | 12° |
| 2026-05-06 21:00 | 51.48983 | 13.62044 | 19142 ft | 388 kts | 12° |
| 2026-05-06 21:01 | 51.51631 | 13.63060 | 18710 ft | 385 kts | 12° |
| 2026-05-06 21:01 | 51.54236 | 13.64061 | 18284 ft | 383 kts | 12° |
| 2026-05-06 21:01 | 51.56785 | 13.65040 | 17830 ft | 381 kts | 11° |
| 2026-05-06 21:01 | 51.59353 | 13.66023 | 17344 ft | 379 kts | 11° |
| 2026-05-06 21:02 | 51.61921 | 13.67002 | 16816 ft | 379 kts | 11° |
| 2026-05-06 21:02 | 51.64480 | 13.67982 | 16297 ft | 378 kts | 12° |
| 2026-05-06 21:02 | 51.67034 | 13.68967 | 15781 ft | 376 kts | 12° |
| 2026-05-06 21:02 | 51.69534 | 13.69935 | 15277 ft | 364 kts | 12° |
| 2026-05-06 21:03 | 51.71957 | 13.70876 | 14777 ft | 353 kts | 12° |
| 2026-05-06 21:03 | 51.74312 | 13.71786 | 14296 ft | 342 kts | 10° |
| 2026-05-06 21:03 | 51.76633 | 13.72079 | 13821 ft | 329 kts | 352° |
| 2026-05-06 21:03 | 51.78806 | 13.71193 | 13450 ft | 320 kts | 333° |
| 2026-05-06 21:04 | 51.80685 | 13.69346 | 13048 ft | 315 kts | 322° |
| 2026-05-06 21:04 | 51.82434 | 13.67303 | 12658 ft | 314 kts | 321° |
| 2026-05-06 21:04 | 51.84198 | 13.65231 | 12261 ft | 311 kts | 321° |
| 2026-05-06 21:04 | 51.85920 | 13.63209 | 11856 ft | 303 kts | 321° |
| 2026-05-06 21:05 | 51.87616 | 13.61214 | 11485 ft | 300 kts | 321° |
| 2026-05-06 21:05 | 51.89296 | 13.59229 | 11112 ft | 298 kts | 321° |
| 2026-05-06 21:05 | 51.90966 | 13.57255 | 10746 ft | 296 kts | 321° |
| 2026-05-06 21:05 | 51.92629 | 13.55286 | 10382 ft | 296 kts | 321° |
| 2026-05-06 21:06 | 51.94289 | 13.53322 | 10016 ft | 295 kts | 321° |
| 2026-05-06 21:06 | 51.95942 | 13.51365 | 9661 ft | 293 kts | 321° |
| 2026-05-06 21:06 | 51.97577 | 13.49429 | 9304 ft | 290 kts | 321° |
| 2026-05-06 21:06 | 51.99198 | 13.47507 | 8943 ft | 288 kts | 321° |
| 2026-05-06 21:07 | 52.00807 | 13.45598 | 8577 ft | 285 kts | 322° |
| 2026-05-06 21:07 | 52.02399 | 13.43707 | 8218 ft | 283 kts | 322° |
| 2026-05-06 21:07 | 52.03999 | 13.41803 | 7902 ft | 280 kts | 322° |
| 2026-05-06 21:07 | 52.05568 | 13.39930 | 7598 ft | 279 kts | 322° |
| 2026-05-06 21:08 | 52.07124 | 13.38074 | 7299 ft | 277 kts | 322° |
| 2026-05-06 21:08 | 52.08677 | 13.36227 | 7006 ft | 276 kts | 322° |
| 2026-05-06 21:08 | 52.10220 | 13.34388 | 6711 ft | 274 kts | 322° |
| 2026-05-06 21:08 | 52.11750 | 13.32558 | 6422 ft | 272 kts | 322° |
| 2026-05-06 21:09 | 52.13270 | 13.30737 | 6123 ft | 270 kts | 322° |
| 2026-05-06 21:09 | 52.14781 | 13.28928 | 5808 ft | 269 kts | 322° |
| 2026-05-06 21:09 | 52.16264 | 13.27154 | 5508 ft | 268 kts | 322° |
| 2026-05-06 21:09 | 52.17768 | 13.25357 | 5205 ft | 267 kts | 322° |
| 2026-05-06 21:10 | 52.19290 | 13.23639 | 4901 ft | 267 kts | 332° |
| 2026-05-06 21:10 | 52.21061 | 13.22784 | 4592 ft | 266 kts | 348° |
| 2026-05-06 21:10 | 52.22864 | 13.22380 | 4247 ft | 256 kts | 358° |
| 2026-05-06 21:10 | 52.24595 | 13.22529 | 3915 ft | 242 kts | 4° |
| 2026-05-06 21:11 | 52.26231 | 13.22787 | 3580 ft | 232 kts | 7° |
| 2026-05-06 21:11 | 52.27734 | 13.23520 | 3269 ft | 219 kts | 30° |
| 2026-05-06 21:11 | 52.28920 | 13.24938 | 3041 ft | 205 kts | 47° |
| 2026-05-06 21:11 | 52.29719 | 13.26770 | 2833 ft | 192 kts | 65° |
| 2026-05-06 21:12 | 52.30209 | 13.28733 | 2586 ft | 184 kts | 69° |
| 2026-05-06 21:12 | 52.30670 | 13.30650 | 2319 ft | 178 kts | 68° |
| 2026-05-06 21:12 | 52.31107 | 13.32471 | 2081 ft | 166 kts | 69° |
| 2026-05-06 21:12 | 52.31513 | 13.34166 | 1855 ft | 154 kts | 68° |
| 2026-05-06 21:13 | 52.31887 | 13.35725 | 1680 ft | 140 kts | 67° |
| 2026-05-06 21:13 | 52.32237 | 13.37189 | 1480 ft | 137 kts | 67° |
| 2026-05-06 21:13 | 52.32581 | 13.38628 | 1290 ft | 135 kts | 67° |
| 2026-05-06 21:13 | 52.32922 | 13.40060 | 1086 ft | 135 kts | 68° |
| 2026-05-06 21:14 | 52.33258 | 13.41464 | 923 ft | 133 kts | 68° |
| 2026-05-06 21:14 | 52.33614 | 13.42945 | 689 ft | 134 kts | 67° |
| 2026-05-06 21:14 | 52.33953 | 13.44373 | 521 ft | 130 kts | 67° |
| 2026-05-06 21:14 | 52.34208 | 13.45439 | 381 ft | 130 kts | 68° |
| 2026-05-06 21:15 | 52.34568 | 13.46954 | 206 ft | 131 kts | 68° |
| 2026-05-06 21:15 | 52.34821 | 13.48003 | 156 ft | 119 kts | 67° |
| 2026-05-06 21:15 | 52.35043 | 13.48944 | 154 ft | 58 kts | 69° |
| 2026-05-06 21:15 | 52.35172 | 13.49491 | 154 ft | 46 kts | 69° |
| 2026-05-06 21:16 | 52.35292 | 13.49872 | 154 ft | 33 kts | 51° |
| 2026-05-06 21:16 | 52.35422 | 13.50058 | 154 ft | 20 kts | 38° |
| 2026-05-06 21:16 | 52.35513 | 13.50174 | 154 ft | 17 kts | 38° |
| 2026-05-06 21:16 | 52.35601 | 13.50302 | 154 ft | 16 kts | 55° |
| 2026-05-06 21:17 | 52.35641 | 13.50476 | 154 ft | 17 kts | 68° |
| 2026-05-06 21:17 | 52.35677 | 13.50621 | 154 ft | 10 kts | 68° |
| 2026-05-06 21:17 | 52.35703 | 13.50731 | 154 ft | 13 kts | 68° |
| 2026-05-06 21:17 | 52.35748 | 13.50828 | 154 ft | 11 kts | 9° |
| 2026-05-06 21:18 | 52.35821 | 13.50795 | 154 ft | 11 kts | 339° |
| 2026-05-06 21:18 | 52.35918 | 13.50733 | 154 ft | 18 kts | 339° |
| 2026-05-06 21:18 | 52.36020 | 13.50669 | 154 ft | 15 kts | 339° |
| 2026-05-06 21:18 | 52.36091 | 13.50624 | 154 ft | 7 kts | 339° |
| 2026-05-06 21:19 | 52.36126 | 13.50611 | 154 ft | 3 kts | 28° |
| 2026-05-06 21:19 | 52.36143 | 13.50658 | 154 ft | 7 kts | 64° |
| 2026-05-06 21:19 | 52.36156 | 13.50670 | 154 ft | 3 kts | 37° |
| 2026-05-06 21:19 | 52.36167 | 13.50701 | 154 ft | 3 kts | 66° |
| 2026-05-06 21:20 | 52.36172 | 13.50720 | 155 ft | 1 kts | 67° |